sensor_id;sensor_type;location;lat;lon;timestamp;temperature;humidity
78345;DHT22;67620;51.134;6.548;2023-04-26T00:01:18;6.80;61.80
78345;DHT22;67620;51.134;6.548;2023-04-26T00:03:43;6.80;62.20
78345;DHT22;67620;51.134;6.548;2023-04-26T00:06:09;6.70;62.40
78345;DHT22;67620;51.134;6.548;2023-04-26T00:08:37;6.70;62.50
78345;DHT22;67620;51.134;6.548;2023-04-26T00:11:03;6.60;62.50
78345;DHT22;67620;51.134;6.548;2023-04-26T00:13:29;6.60;63.20
78345;DHT22;67620;51.134;6.548;2023-04-26T00:15:54;6.60;62.60
78345;DHT22;67620;51.134;6.548;2023-04-26T00:18:20;6.60;62.60
78345;DHT22;67620;51.134;6.548;2023-04-26T00:20:46;6.60;62.30
78345;DHT22;67620;51.134;6.548;2023-04-26T00:23:11;6.50;62.10
78345;DHT22;67620;51.134;6.548;2023-04-26T00:25:37;6.60;61.80
78345;DHT22;67620;51.134;6.548;2023-04-26T00:28:03;6.40;61.90
78345;DHT22;67620;51.134;6.548;2023-04-26T00:30:28;6.40;62.10
78345;DHT22;67620;51.134;6.548;2023-04-26T00:32:54;6.30;62.40
78345;DHT22;67620;51.134;6.548;2023-04-26T00:35:20;6.40;62.10
78345;DHT22;67620;51.134;6.548;2023-04-26T00:37:45;6.40;61.40
78345;DHT22;67620;51.134;6.548;2023-04-26T00:40:12;6.30;62.00
78345;DHT22;67620;51.134;6.548;2023-04-26T00:42:38;6.20;61.90
78345;DHT22;67620;51.134;6.548;2023-04-26T00:45:05;6.30;62.00
78345;DHT22;67620;51.134;6.548;2023-04-26T00:47:30;6.30;62.20
78345;DHT22;67620;51.134;6.548;2023-04-26T00:49:56;6.30;63.00
78345;DHT22;67620;51.134;6.548;2023-04-26T00:52:23;6.40;62.90
78345;DHT22;67620;51.134;6.548;2023-04-26T00:54:49;6.30;63.20
78345;DHT22;67620;51.134;6.548;2023-04-26T00:57:15;6.30;62.90
78345;DHT22;67620;51.134;6.548;2023-04-26T00:59:41;6.30;63.10
78345;DHT22;67620;51.134;6.548;2023-04-26T01:02:06;6.40;63.10
78345;DHT22;67620;51.134;6.548;2023-04-26T01:04:32;6.30;62.70
78345;DHT22;67620;51.134;6.548;2023-04-26T01:06:59;6.20;62.40
78345;DHT22;67620;51.134;6.548;2023-04-26T01:09:25;6.10;62.60
78345;DHT22;67620;51.134;6.548;2023-04-26T01:11:51;6.10;62.50
78345;DHT22;67620;51.134;6.548;2023-04-26T01:14:17;6.10;62.20
78345;DHT22;67620;51.134;6.548;2023-04-26T01:16:43;6.00;62.20
78345;DHT22;67620;51.134;6.548;2023-04-26T01:19:10;6.10;61.70
78345;DHT22;67620;51.134;6.548;2023-04-26T01:21:37;6.00;61.50
78345;DHT22;67620;51.134;6.548;2023-04-26T01:24:03;5.90;61.50
78345;DHT22;67620;51.134;6.548;2023-04-26T01:26:29;5.80;61.60
78345;DHT22;67620;51.134;6.548;2023-04-26T01:28:54;5.70;61.60
78345;DHT22;67620;51.134;6.548;2023-04-26T01:31:20;5.70;62.40
78345;DHT22;67620;51.134;6.548;2023-04-26T01:33:45;5.60;62.60
78345;DHT22;67620;51.134;6.548;2023-04-26T01:36:11;5.60;62.60
78345;DHT22;67620;51.134;6.548;2023-04-26T01:38:36;5.70;62.30
78345;DHT22;67620;51.134;6.548;2023-04-26T01:41:02;5.60;62.40
78345;DHT22;67620;51.134;6.548;2023-04-26T01:43:28;5.60;62.30
78345;DHT22;67620;51.134;6.548;2023-04-26T01:45:53;5.60;62.40
78345;DHT22;67620;51.134;6.548;2023-04-26T01:48:19;5.60;62.50
78345;DHT22;67620;51.134;6.548;2023-04-26T01:50:45;5.70;62.20
78345;DHT22;67620;51.134;6.548;2023-04-26T01:53:10;5.80;62.40
78345;DHT22;67620;51.134;6.548;2023-04-26T01:55:36;5.70;62.60
78345;DHT22;67620;51.134;6.548;2023-04-26T01:58:02;5.60;63.10
78345;DHT22;67620;51.134;6.548;2023-04-26T02:00:28;5.60;63.30
78345;DHT22;67620;51.134;6.548;2023-04-26T02:02:57;5.60;64.60
78345;DHT22;67620;51.134;6.548;2023-04-26T02:05:23;5.70;63.90
78345;DHT22;67620;51.134;6.548;2023-04-26T02:07:49;5.70;63.10
78345;DHT22;67620;51.134;6.548;2023-04-26T02:10:15;5.50;62.80
78345;DHT22;67620;51.134;6.548;2023-04-26T02:12:41;5.40;62.40
78345;DHT22;67620;51.134;6.548;2023-04-26T02:15:07;5.40;62.40
78345;DHT22;67620;51.134;6.548;2023-04-26T02:17:33;5.40;62.00
78345;DHT22;67620;51.134;6.548;2023-04-26T02:19:59;5.30;61.70
78345;DHT22;67620;51.134;6.548;2023-04-26T02:22:24;5.20;62.00
78345;DHT22;67620;51.134;6.548;2023-04-26T02:24:50;5.20;62.50
78345;DHT22;67620;51.134;6.548;2023-04-26T02:27:17;5.20;62.50
78345;DHT22;67620;51.134;6.548;2023-04-26T02:29:43;5.10;62.70
78345;DHT22;67620;51.134;6.548;2023-04-26T02:32:08;5.20;62.60
78345;DHT22;67620;51.134;6.548;2023-04-26T02:34:34;5.20;62.10
78345;DHT22;67620;51.134;6.548;2023-04-26T02:37:00;5.10;62.60
78345;DHT22;67620;51.134;6.548;2023-04-26T02:39:26;5.10;62.90
78345;DHT22;67620;51.134;6.548;2023-04-26T02:41:51;5.10;62.80
78345;DHT22;67620;51.134;6.548;2023-04-26T02:44:17;5.20;62.90
78345;DHT22;67620;51.134;6.548;2023-04-26T02:46:42;5.30;63.70
78345;DHT22;67620;51.134;6.548;2023-04-26T02:49:08;5.20;63.80
78345;DHT22;67620;51.134;6.548;2023-04-26T02:51:33;5.20;63.80
78345;DHT22;67620;51.134;6.548;2023-04-26T02:53:59;5.30;63.90
78345;DHT22;67620;51.134;6.548;2023-04-26T02:56:24;5.30;64.00
78345;DHT22;67620;51.134;6.548;2023-04-26T02:58:50;5.30;64.00
78345;DHT22;67620;51.134;6.548;2023-04-26T03:01:15;5.30;64.20
78345;DHT22;67620;51.134;6.548;2023-04-26T03:03:42;5.30;64.00
78345;DHT22;67620;51.134;6.548;2023-04-26T03:06:07;5.20;63.10
78345;DHT22;67620;51.134;6.548;2023-04-26T03:08:33;5.10;63.50
78345;DHT22;67620;51.134;6.548;2023-04-26T03:11:01;5.10;63.00
78345;DHT22;67620;51.134;6.548;2023-04-26T03:13:26;5.10;63.70
78345;DHT22;67620;51.134;6.548;2023-04-26T03:15:52;5.10;64.00
78345;DHT22;67620;51.134;6.548;2023-04-26T03:18:18;5.10;64.60
78345;DHT22;67620;51.134;6.548;2023-04-26T03:20:45;5.20;63.60
78345;DHT22;67620;51.134;6.548;2023-04-26T03:23:10;5.00;62.90
78345;DHT22;67620;51.134;6.548;2023-04-26T03:25:36;4.90;62.60
78345;DHT22;67620;51.134;6.548;2023-04-26T03:28:02;4.90;62.40
78345;DHT22;67620;51.134;6.548;2023-04-26T03:30:28;4.80;62.50
78345;DHT22;67620;51.134;6.548;2023-04-26T03:32:54;4.90;62.60
78345;DHT22;67620;51.134;6.548;2023-04-26T03:35:20;4.90;62.70
78345;DHT22;67620;51.134;6.548;2023-04-26T03:37:46;4.90;63.00
78345;DHT22;67620;51.134;6.548;2023-04-26T03:40:11;4.90;63.90
78345;DHT22;67620;51.134;6.548;2023-04-26T03:42:37;4.90;64.20
78345;DHT22;67620;51.134;6.548;2023-04-26T03:45:03;5.00;64.50
78345;DHT22;67620;51.134;6.548;2023-04-26T03:47:29;5.00;64.60
78345;DHT22;67620;51.134;6.548;2023-04-26T03:49:56;4.90;64.40
78345;DHT22;67620;51.134;6.548;2023-04-26T03:52:22;4.80;64.70
78345;DHT22;67620;51.134;6.548;2023-04-26T03:54:47;4.90;64.50
78345;DHT22;67620;51.134;6.548;2023-04-26T03:57:13;4.90;64.00
78345;DHT22;67620;51.134;6.548;2023-04-26T03:59:38;4.80;64.60
78345;DHT22;67620;51.134;6.548;2023-04-26T04:02:04;4.80;64.70
78345;DHT22;67620;51.134;6.548;2023-04-26T04:04:30;4.80;64.40
78345;DHT22;67620;51.134;6.548;2023-04-26T04:06:56;4.80;63.90
78345;DHT22;67620;51.134;6.548;2023-04-26T04:09:21;4.80;63.90
78345;DHT22;67620;51.134;6.548;2023-04-26T04:11:47;4.80;63.60
78345;DHT22;67620;51.134;6.548;2023-04-26T04:14:12;4.80;63.20
78345;DHT22;67620;51.134;6.548;2023-04-26T04:16:38;4.80;62.60
78345;DHT22;67620;51.134;6.548;2023-04-26T04:19:03;4.70;62.40
78345;DHT22;67620;51.134;6.548;2023-04-26T04:21:29;4.60;62.50
78345;DHT22;67620;51.134;6.548;2023-04-26T04:23:56;4.50;62.60
78345;DHT22;67620;51.134;6.548;2023-04-26T04:26:21;4.50;63.10
78345;DHT22;67620;51.134;6.548;2023-04-26T04:28:47;4.50;63.00
78345;DHT22;67620;51.134;6.548;2023-04-26T04:31:13;4.50;63.10
78345;DHT22;67620;51.134;6.548;2023-04-26T04:33:39;4.50;63.30
78345;DHT22;67620;51.134;6.548;2023-04-26T04:36:05;4.50;63.10
78345;DHT22;67620;51.134;6.548;2023-04-26T04:38:31;4.50;63.20
78345;DHT22;67620;51.134;6.548;2023-04-26T04:40:57;4.60;63.00
78345;DHT22;67620;51.134;6.548;2023-04-26T04:43:23;4.50;63.40
78345;DHT22;67620;51.134;6.548;2023-04-26T04:45:48;4.50;63.20
78345;DHT22;67620;51.134;6.548;2023-04-26T04:48:14;4.40;63.90
78345;DHT22;67620;51.134;6.548;2023-04-26T04:50:40;4.40;63.90
78345;DHT22;67620;51.134;6.548;2023-04-26T04:53:09;4.50;65.10
78345;DHT22;67620;51.134;6.548;2023-04-26T04:55:34;4.50;64.90
78345;DHT22;67620;51.134;6.548;2023-04-26T04:58:02;4.50;64.50
78345;DHT22;67620;51.134;6.548;2023-04-26T05:00:28;4.50;64.60
78345;DHT22;67620;51.134;6.548;2023-04-26T05:02:54;4.50;64.70
78345;DHT22;67620;51.134;6.548;2023-04-26T05:05:19;4.50;65.50
78345;DHT22;67620;51.134;6.548;2023-04-26T05:07:45;4.50;65.70
78345;DHT22;67620;51.134;6.548;2023-04-26T05:10:11;4.50;65.80
78345;DHT22;67620;51.134;6.548;2023-04-26T05:12:36;4.60;66.00
78345;DHT22;67620;51.134;6.548;2023-04-26T05:15:03;4.60;66.40
78345;DHT22;67620;51.134;6.548;2023-04-26T05:17:28;4.70;66.50
78345;DHT22;67620;51.134;6.548;2023-04-26T05:19:56;4.70;66.60
78345;DHT22;67620;51.134;6.548;2023-04-26T05:22:22;4.60;67.10
78345;DHT22;67620;51.134;6.548;2023-04-26T05:24:48;4.60;67.30
78345;DHT22;67620;51.134;6.548;2023-04-26T05:27:13;4.60;67.90
78345;DHT22;67620;51.134;6.548;2023-04-26T05:29:39;4.60;68.60
78345;DHT22;67620;51.134;6.548;2023-04-26T05:32:05;4.70;68.80
78345;DHT22;67620;51.134;6.548;2023-04-26T05:34:30;4.70;68.80
78345;DHT22;67620;51.134;6.548;2023-04-26T05:36:56;4.70;69.30
78345;DHT22;67620;51.134;6.548;2023-04-26T05:39:21;4.80;69.40
78345;DHT22;67620;51.134;6.548;2023-04-26T05:41:47;4.60;70.20
78345;DHT22;67620;51.134;6.548;2023-04-26T05:44:13;4.70;70.30
78345;DHT22;67620;51.134;6.548;2023-04-26T05:46:41;4.70;71.10
78345;DHT22;67620;51.134;6.548;2023-04-26T05:49:06;4.70;71.30
78345;DHT22;67620;51.134;6.548;2023-04-26T05:51:32;4.80;71.30
78345;DHT22;67620;51.134;6.548;2023-04-26T05:53:57;4.90;71.20
78345;DHT22;67620;51.134;6.548;2023-04-26T05:56:23;4.90;71.60
78345;DHT22;67620;51.134;6.548;2023-04-26T05:58:50;4.90;72.20
78345;DHT22;67620;51.134;6.548;2023-04-26T06:01:17;4.90;72.70
78345;DHT22;67620;51.134;6.548;2023-04-26T06:03:44;4.90;73.30
78345;DHT22;67620;51.134;6.548;2023-04-26T06:06:10;4.90;73.40
78345;DHT22;67620;51.134;6.548;2023-04-26T06:08:35;4.90;74.20
78345;DHT22;67620;51.134;6.548;2023-04-26T06:11:01;4.90;74.00
78345;DHT22;67620;51.134;6.548;2023-04-26T06:13:27;4.90;73.80
78345;DHT22;67620;51.134;6.548;2023-04-26T06:15:53;4.80;74.40
78345;DHT22;67620;51.134;6.548;2023-04-26T06:18:18;4.90;74.10
78345;DHT22;67620;51.134;6.548;2023-04-26T06:20:45;5.00;74.20
78345;DHT22;67620;51.134;6.548;2023-04-26T06:23:11;5.00;74.40
78345;DHT22;67620;51.134;6.548;2023-04-26T06:25:36;5.00;74.60
78345;DHT22;67620;51.134;6.548;2023-04-26T06:28:02;5.20;74.20
78345;DHT22;67620;51.134;6.548;2023-04-26T06:30:28;5.20;74.40
78345;DHT22;67620;51.134;6.548;2023-04-26T06:32:53;5.20;74.80
78345;DHT22;67620;51.134;6.548;2023-04-26T06:35:19;5.20;74.50
78345;DHT22;67620;51.134;6.548;2023-04-26T06:37:45;5.30;74.70
78345;DHT22;67620;51.134;6.548;2023-04-26T06:40:10;5.30;74.70
78345;DHT22;67620;51.134;6.548;2023-04-26T06:42:38;5.40;74.50
78345;DHT22;67620;51.134;6.548;2023-04-26T06:45:04;5.40;74.50
78345;DHT22;67620;51.134;6.548;2023-04-26T06:47:29;5.40;75.30
78345;DHT22;67620;51.134;6.548;2023-04-26T06:49:55;5.40;75.60
78345;DHT22;67620;51.134;6.548;2023-04-26T06:52:21;5.50;76.30
78345;DHT22;67620;51.134;6.548;2023-04-26T06:54:46;5.50;73.60
78345;DHT22;67620;51.134;6.548;2023-04-26T06:57:12;5.50;74.60
78345;DHT22;67620;51.134;6.548;2023-04-26T06:59:37;5.50;74.30
78345;DHT22;67620;51.134;6.548;2023-04-26T07:02:03;5.60;74.90
78345;DHT22;67620;51.134;6.548;2023-04-26T07:04:28;5.60;73.40
78345;DHT22;67620;51.134;6.548;2023-04-26T07:06:54;5.60;74.30
78345;DHT22;67620;51.134;6.548;2023-04-26T07:09:20;5.60;73.80
78345;DHT22;67620;51.134;6.548;2023-04-26T07:11:47;5.70;73.10
78345;DHT22;67620;51.134;6.548;2023-04-26T07:14:12;5.70;73.60
78345;DHT22;67620;51.134;6.548;2023-04-26T07:16:38;5.70;73.90
78345;DHT22;67620;51.134;6.548;2023-04-26T07:19:03;5.70;73.80
78345;DHT22;67620;51.134;6.548;2023-04-26T07:21:29;5.80;73.70
78345;DHT22;67620;51.134;6.548;2023-04-26T07:23:55;5.90;74.70
78345;DHT22;67620;51.134;6.548;2023-04-26T07:26:21;5.90;74.10
78345;DHT22;67620;51.134;6.548;2023-04-26T07:28:47;5.90;74.10
78345;DHT22;67620;51.134;6.548;2023-04-26T07:31:13;5.90;74.30
78345;DHT22;67620;51.134;6.548;2023-04-26T07:33:38;5.90;73.70
78345;DHT22;67620;51.134;6.548;2023-04-26T07:36:04;6.00;74.00
78345;DHT22;67620;51.134;6.548;2023-04-26T07:38:30;6.00;73.90
78345;DHT22;67620;51.134;6.548;2023-04-26T07:40:55;6.00;72.30
78345;DHT22;67620;51.134;6.548;2023-04-26T07:43:21;6.10;72.10
78345;DHT22;67620;51.134;6.548;2023-04-26T07:45:47;6.10;71.40
78345;DHT22;67620;51.134;6.548;2023-04-26T07:48:13;6.10;70.90
78345;DHT22;67620;51.134;6.548;2023-04-26T07:50:38;6.10;70.40
78345;DHT22;67620;51.134;6.548;2023-04-26T07:53:04;6.10;69.40
78345;DHT22;67620;51.134;6.548;2023-04-26T07:55:29;6.20;70.50
78345;DHT22;67620;51.134;6.548;2023-04-26T07:57:55;6.20;68.70
78345;DHT22;67620;51.134;6.548;2023-04-26T08:00:20;6.20;67.60
78345;DHT22;67620;51.134;6.548;2023-04-26T08:02:49;6.30;68.40
78345;DHT22;67620;51.134;6.548;2023-04-26T08:05:15;6.30;68.70
78345;DHT22;67620;51.134;6.548;2023-04-26T08:07:41;6.40;70.20
78345;DHT22;67620;51.134;6.548;2023-04-26T08:10:08;6.40;70.50
78345;DHT22;67620;51.134;6.548;2023-04-26T08:12:40;6.50;69.20
78345;DHT22;67620;51.134;6.548;2023-04-26T08:15:05;6.40;68.30
78345;DHT22;67620;51.134;6.548;2023-04-26T08:17:31;6.50;69.90
78345;DHT22;67620;51.134;6.548;2023-04-26T08:20:00;6.50;66.80
78345;DHT22;67620;51.134;6.548;2023-04-26T08:22:25;6.50;66.30
78345;DHT22;67620;51.134;6.548;2023-04-26T08:24:54;6.60;68.60
78345;DHT22;67620;51.134;6.548;2023-04-26T08:27:20;6.60;66.20
78345;DHT22;67620;51.134;6.548;2023-04-26T08:29:46;6.60;65.20
78345;DHT22;67620;51.134;6.548;2023-04-26T08:32:12;6.60;65.00
78345;DHT22;67620;51.134;6.548;2023-04-26T08:34:38;6.60;64.20
78345;DHT22;67620;51.134;6.548;2023-04-26T08:37:05;6.60;64.20
78345;DHT22;67620;51.134;6.548;2023-04-26T08:39:32;6.70;65.40
78345;DHT22;67620;51.134;6.548;2023-04-26T08:42:04;6.70;64.00
78345;DHT22;67620;51.134;6.548;2023-04-26T08:44:33;6.70;60.30
78345;DHT22;67620;51.134;6.548;2023-04-26T08:49:55;6.80;62.80
78345;DHT22;67620;51.134;6.548;2023-04-26T08:52:27;6.90;63.90
78345;DHT22;67620;51.134;6.548;2023-04-26T08:54:54;7.00;63.80
78345;DHT22;67620;51.134;6.548;2023-04-26T08:57:21;7.00;63.40
78345;DHT22;67620;51.134;6.548;2023-04-26T08:59:48;7.00;62.30
78345;DHT22;67620;51.134;6.548;2023-04-26T09:02:17;7.00;58.70
78345;DHT22;67620;51.134;6.548;2023-04-26T09:04:46;7.00;58.00
78345;DHT22;67620;51.134;6.548;2023-04-26T09:07:18;7.00;58.80
78345;DHT22;67620;51.134;6.548;2023-04-26T09:09:47;7.00;59.80
78345;DHT22;67620;51.134;6.548;2023-04-26T09:12:13;7.10;60.40
78345;DHT22;67620;51.134;6.548;2023-04-26T09:14:38;7.10;60.30
78345;DHT22;67620;51.134;6.548;2023-04-26T09:17:04;7.10;60.80
78345;DHT22;67620;51.134;6.548;2023-04-26T09:19:37;7.10;60.60
78345;DHT22;67620;51.134;6.548;2023-04-26T09:22:03;7.20;60.10
78345;DHT22;67620;51.134;6.548;2023-04-26T09:24:50;7.10;61.40
78345;DHT22;67620;51.134;6.548;2023-04-26T09:27:19;7.20;62.20
78345;DHT22;67620;51.134;6.548;2023-04-26T09:30:03;7.30;60.80
78345;DHT22;67620;51.134;6.548;2023-04-26T09:32:47;7.40;60.20
78345;DHT22;67620;51.134;6.548;2023-04-26T09:37:57;7.60;58.70
78345;DHT22;67620;51.134;6.548;2023-04-26T09:40:24;7.70;59.00
78345;DHT22;67620;51.134;6.548;2023-04-26T09:43:07;7.80;57.20
78345;DHT22;67620;51.134;6.548;2023-04-26T09:50:41;7.70;58.10
78345;DHT22;67620;51.134;6.548;2023-04-26T09:53:07;7.70;58.20
78345;DHT22;67620;51.134;6.548;2023-04-26T09:55:33;7.80;58.40
78345;DHT22;67620;51.134;6.548;2023-04-26T09:58:10;7.80;58.00
78345;DHT22;67620;51.134;6.548;2023-04-26T10:00:37;7.90;58.90
78345;DHT22;67620;51.134;6.548;2023-04-26T10:03:05;7.90;59.00
78345;DHT22;67620;51.134;6.548;2023-04-26T10:05:32;7.90;58.10
78345;DHT22;67620;51.134;6.548;2023-04-26T10:07:57;7.90;57.80
78345;DHT22;67620;51.134;6.548;2023-04-26T10:10:23;7.90;58.00
78345;DHT22;67620;51.134;6.548;2023-04-26T10:12:48;7.90;57.50
78345;DHT22;67620;51.134;6.548;2023-04-26T10:15:14;7.90;57.10
78345;DHT22;67620;51.134;6.548;2023-04-26T10:17:40;7.90;58.70
78345;DHT22;67620;51.134;6.548;2023-04-26T10:20:10;8.00;58.10
78345;DHT22;67620;51.134;6.548;2023-04-26T10:22:42;8.10;55.00
78345;DHT22;67620;51.134;6.548;2023-04-26T10:25:09;8.20;57.40
78345;DHT22;67620;51.134;6.548;2023-04-26T10:27:46;8.20;56.60
78345;DHT22;67620;51.134;6.548;2023-04-26T10:30:16;8.20;56.00
78345;DHT22;67620;51.134;6.548;2023-04-26T10:35:26;8.20;56.50
78345;DHT22;67620;51.134;6.548;2023-04-26T10:40:44;8.20;55.00
78345;DHT22;67620;51.134;6.548;2023-04-26T10:45:37;8.20;55.10
78345;DHT22;67620;51.134;6.548;2023-04-26T10:48:22;8.20;55.50
78345;DHT22;67620;51.134;6.548;2023-04-26T10:58:47;8.30;56.10
78345;DHT22;67620;51.134;6.548;2023-04-26T11:03:41;8.30;55.50
78345;DHT22;67620;51.134;6.548;2023-04-26T11:06:10;8.30;56.70
78345;DHT22;67620;51.134;6.548;2023-04-26T11:08:39;8.40;56.00
78345;DHT22;67620;51.134;6.548;2023-04-26T11:11:07;8.50;54.50
78345;DHT22;67620;51.134;6.548;2023-04-26T11:13:38;8.40;55.60
78345;DHT22;67620;51.134;6.548;2023-04-26T11:16:09;8.50;54.70
78345;DHT22;67620;51.134;6.548;2023-04-26T11:18:35;8.50;53.50
78345;DHT22;67620;51.134;6.548;2023-04-26T11:21:02;8.50;53.60
78345;DHT22;67620;51.134;6.548;2023-04-26T11:23:29;8.50;53.40
78345;DHT22;67620;51.134;6.548;2023-04-26T11:25:59;8.50;53.70
78345;DHT22;67620;51.134;6.548;2023-04-26T11:28:28;8.50;54.50
78345;DHT22;67620;51.134;6.548;2023-04-26T11:30:53;8.60;54.20
78345;DHT22;67620;51.134;6.548;2023-04-26T11:33:20;8.60;55.50
78345;DHT22;67620;51.134;6.548;2023-04-26T11:35:48;8.70;54.30
78345;DHT22;67620;51.134;6.548;2023-04-26T11:38:14;8.80;54.50
78345;DHT22;67620;51.134;6.548;2023-04-26T11:40:40;8.80;55.10
78345;DHT22;67620;51.134;6.548;2023-04-26T11:43:07;8.90;53.40
78345;DHT22;67620;51.134;6.548;2023-04-26T11:45:34;8.90;53.50
78345;DHT22;67620;51.134;6.548;2023-04-26T11:48:02;8.90;53.60
78345;DHT22;67620;51.134;6.548;2023-04-26T11:50:30;8.90;52.70
78345;DHT22;67620;51.134;6.548;2023-04-26T11:52:59;8.80;53.50
78345;DHT22;67620;51.134;6.548;2023-04-26T11:55:28;8.90;55.10
78345;DHT22;67620;51.134;6.548;2023-04-26T11:57:56;9.00;55.20
78345;DHT22;67620;51.134;6.548;2023-04-26T12:00:22;9.00;56.10
78345;DHT22;67620;51.134;6.548;2023-04-26T12:02:49;9.00;54.10
78345;DHT22;67620;51.134;6.548;2023-04-26T12:05:26;9.00;54.90
78345;DHT22;67620;51.134;6.548;2023-04-26T12:07:57;9.00;54.60
78345;DHT22;67620;51.134;6.548;2023-04-26T12:10:25;9.10;55.00
78345;DHT22;67620;51.134;6.548;2023-04-26T12:12:53;9.10;53.80
78345;DHT22;67620;51.134;6.548;2023-04-26T12:15:28;9.20;54.10
78345;DHT22;67620;51.134;6.548;2023-04-26T12:18:05;9.20;54.00
78345;DHT22;67620;51.134;6.548;2023-04-26T12:20:35;9.20;53.00
78345;DHT22;67620;51.134;6.548;2023-04-26T12:23:02;9.20;51.00
78345;DHT22;67620;51.134;6.548;2023-04-26T12:25:28;9.20;50.40
78345;DHT22;67620;51.134;6.548;2023-04-26T12:27:55;9.20;51.50
78345;DHT22;67620;51.134;6.548;2023-04-26T12:30:21;9.20;51.60
78345;DHT22;67620;51.134;6.548;2023-04-26T12:32:46;9.20;52.10
78345;DHT22;67620;51.134;6.548;2023-04-26T12:35:12;9.30;52.90
78345;DHT22;67620;51.134;6.548;2023-04-26T12:37:38;9.30;51.00
78345;DHT22;67620;51.134;6.548;2023-04-26T12:40:04;9.30;52.10
78345;DHT22;67620;51.134;6.548;2023-04-26T12:42:31;9.40;50.70
78345;DHT22;67620;51.134;6.548;2023-04-26T12:44:57;9.50;51.20
78345;DHT22;67620;51.134;6.548;2023-04-26T12:47:22;9.60;51.00
78345;DHT22;67620;51.134;6.548;2023-04-26T12:49:48;9.70;50.20
78345;DHT22;67620;51.134;6.548;2023-04-26T12:52:13;9.70;49.10
78345;DHT22;67620;51.134;6.548;2023-04-26T12:54:39;9.70;51.30
78345;DHT22;67620;51.134;6.548;2023-04-26T12:57:04;9.70;51.70
78345;DHT22;67620;51.134;6.548;2023-04-26T12:59:30;9.80;51.40
78345;DHT22;67620;51.134;6.548;2023-04-26T13:01:55;9.90;50.10
78345;DHT22;67620;51.134;6.548;2023-04-26T13:04:21;9.80;51.40
78345;DHT22;67620;51.134;6.548;2023-04-26T13:06:47;9.80;51.00
78345;DHT22;67620;51.134;6.548;2023-04-26T13:09:12;9.80;51.10
78345;DHT22;67620;51.134;6.548;2023-04-26T13:11:38;9.80;51.30
78345;DHT22;67620;51.134;6.548;2023-04-26T13:14:04;9.90;51.60
78345;DHT22;67620;51.134;6.548;2023-04-26T13:16:32;9.80;52.40
78345;DHT22;67620;51.134;6.548;2023-04-26T13:18:57;9.90;52.20
78345;DHT22;67620;51.134;6.548;2023-04-26T13:21:23;9.80;51.30
78345;DHT22;67620;51.134;6.548;2023-04-26T13:23:48;9.80;52.00
78345;DHT22;67620;51.134;6.548;2023-04-26T13:26:14;9.80;51.70
78345;DHT22;67620;51.134;6.548;2023-04-26T13:28:41;9.80;51.70
78345;DHT22;67620;51.134;6.548;2023-04-26T13:31:07;9.80;50.70
78345;DHT22;67620;51.134;6.548;2023-04-26T13:33:32;9.80;49.60
78345;DHT22;67620;51.134;6.548;2023-04-26T13:35:58;9.80;49.20
78345;DHT22;67620;51.134;6.548;2023-04-26T13:38:24;9.80;49.30
78345;DHT22;67620;51.134;6.548;2023-04-26T13:40:50;9.80;49.10
78345;DHT22;67620;51.134;6.548;2023-04-26T13:43:16;9.80;50.20
78345;DHT22;67620;51.134;6.548;2023-04-26T13:45:41;9.80;51.80
78345;DHT22;67620;51.134;6.548;2023-04-26T13:48:07;9.90;51.40
78345;DHT22;67620;51.134;6.548;2023-04-26T13:50:34;9.90;50.40
78345;DHT22;67620;51.134;6.548;2023-04-26T13:53:00;9.90;51.90
78345;DHT22;67620;51.134;6.548;2023-04-26T13:55:26;9.90;49.20
78345;DHT22;67620;51.134;6.548;2023-04-26T13:57:54;10.00;48.50
78345;DHT22;67620;51.134;6.548;2023-04-26T14:00:20;10.00;48.60
78345;DHT22;67620;51.134;6.548;2023-04-26T14:02:46;9.90;48.40
78345;DHT22;67620;51.134;6.548;2023-04-26T14:05:11;9.90;49.20
78345;DHT22;67620;51.134;6.548;2023-04-26T14:07:37;10.00;49.20
78345;DHT22;67620;51.134;6.548;2023-04-26T14:10:02;10.10;49.70
78345;DHT22;67620;51.134;6.548;2023-04-26T14:12:28;10.10;49.80
78345;DHT22;67620;51.134;6.548;2023-04-26T14:14:53;10.10;49.80
78345;DHT22;67620;51.134;6.548;2023-04-26T14:17:19;10.10;46.30
78345;DHT22;67620;51.134;6.548;2023-04-26T14:19:45;10.10;48.00
78345;DHT22;67620;51.134;6.548;2023-04-26T14:22:10;10.10;48.10
78345;DHT22;67620;51.134;6.548;2023-04-26T14:24:37;10.10;48.60
78345;DHT22;67620;51.134;6.548;2023-04-26T14:27:03;10.10;50.00
78345;DHT22;67620;51.134;6.548;2023-04-26T14:29:28;10.20;49.00
78345;DHT22;67620;51.134;6.548;2023-04-26T14:31:54;10.20;49.00
78345;DHT22;67620;51.134;6.548;2023-04-26T14:34:19;10.30;49.30
78345;DHT22;67620;51.134;6.548;2023-04-26T14:36:55;10.30;48.90
78345;DHT22;67620;51.134;6.548;2023-04-26T14:39:26;10.30;49.00
78345;DHT22;67620;51.134;6.548;2023-04-26T14:41:52;10.40;48.50
78345;DHT22;67620;51.134;6.548;2023-04-26T14:44:22;10.40;48.80
78345;DHT22;67620;51.134;6.548;2023-04-26T14:46:47;10.40;47.00
78345;DHT22;67620;51.134;6.548;2023-04-26T14:49:13;10.40;47.60
78345;DHT22;67620;51.134;6.548;2023-04-26T14:51:38;10.30;47.90
78345;DHT22;67620;51.134;6.548;2023-04-26T14:54:04;10.40;48.00
78345;DHT22;67620;51.134;6.548;2023-04-26T14:56:33;10.40;48.20
78345;DHT22;67620;51.134;6.548;2023-04-26T14:58:59;10.40;48.70
78345;DHT22;67620;51.134;6.548;2023-04-26T15:01:26;10.50;47.40
78345;DHT22;67620;51.134;6.548;2023-04-26T15:03:51;10.50;46.10
78345;DHT22;67620;51.134;6.548;2023-04-26T15:06:17;10.50;46.20
78345;DHT22;67620;51.134;6.548;2023-04-26T15:08:43;10.50;46.80
78345;DHT22;67620;51.134;6.548;2023-04-26T15:11:08;10.60;47.30
78345;DHT22;67620;51.134;6.548;2023-04-26T15:13:34;10.50;47.50
78345;DHT22;67620;51.134;6.548;2023-04-26T15:16:04;10.40;46.60
78345;DHT22;67620;51.134;6.548;2023-04-26T15:18:30;10.50;46.70
78345;DHT22;67620;51.134;6.548;2023-04-26T15:20:56;10.50;47.40
78345;DHT22;67620;51.134;6.548;2023-04-26T15:23:22;10.50;47.40
78345;DHT22;67620;51.134;6.548;2023-04-26T15:25:47;10.60;47.60
78345;DHT22;67620;51.134;6.548;2023-04-26T15:28:14;10.60;48.20
78345;DHT22;67620;51.134;6.548;2023-04-26T15:30:40;10.60;47.90
78345;DHT22;67620;51.134;6.548;2023-04-26T15:33:05;10.70;47.30
78345;DHT22;67620;51.134;6.548;2023-04-26T15:35:32;10.60;47.60
78345;DHT22;67620;51.134;6.548;2023-04-26T15:37:58;10.60;48.00
78345;DHT22;67620;51.134;6.548;2023-04-26T15:40:24;10.60;47.40
78345;DHT22;67620;51.134;6.548;2023-04-26T15:42:50;10.60;47.90
78345;DHT22;67620;51.134;6.548;2023-04-26T15:45:16;10.60;47.50
78345;DHT22;67620;51.134;6.548;2023-04-26T15:47:42;10.60;47.10
78345;DHT22;67620;51.134;6.548;2023-04-26T15:50:08;10.60;46.80
78345;DHT22;67620;51.134;6.548;2023-04-26T15:52:34;10.60;46.20
78345;DHT22;67620;51.134;6.548;2023-04-26T15:55:01;10.60;46.70
78345;DHT22;67620;51.134;6.548;2023-04-26T15:57:27;10.60;47.00
78345;DHT22;67620;51.134;6.548;2023-04-26T15:59:52;10.70;47.30
78345;DHT22;67620;51.134;6.548;2023-04-26T16:02:18;10.70;46.10
78345;DHT22;67620;51.134;6.548;2023-04-26T16:04:43;10.70;46.50
78345;DHT22;67620;51.134;6.548;2023-04-26T16:07:09;10.70;47.00
78345;DHT22;67620;51.134;6.548;2023-04-26T16:09:34;10.70;45.60